createdAt,value
2023-05-06T00:02:17.704Z,8.75
2023-05-06T00:04:46.030Z,6.67
2023-05-06T00:07:14.336Z,7.50
2023-05-06T00:09:42.582Z,6.50
2023-05-06T00:12:10.899Z,7.67
2023-05-06T00:14:39.084Z,10.00
2023-05-06T00:17:07.831Z,5.25
2023-05-06T00:19:36.057Z,7.75
2023-05-06T00:22:04.392Z,7.25
2023-05-06T00:24:32.593Z,10.00
2023-05-06T00:27:01.858Z,9.00
2023-05-06T00:29:30.118Z,7.00
2023-05-06T00:31:58.437Z,9.25
2023-05-06T00:34:26.745Z,8.25
2023-05-06T00:36:55.050Z,6.00
2023-05-06T00:39:23.351Z,8.00
2023-05-06T00:41:51.699Z,8.50
2023-05-06T00:44:19.886Z,8.00
2023-05-06T00:46:48.222Z,8.67
2023-05-06T00:49:16.472Z,5.50
2023-05-06T00:51:44.819Z,9.00
2023-05-06T00:54:13.726Z,7.00
2023-05-06T00:56:42.366Z,8.50
2023-05-06T00:59:10.721Z,8.00
2023-05-06T01:01:38.978Z,7.50
2023-05-06T01:04:08.942Z,7.25
2023-05-06T01:06:49.542Z,6.00
2023-05-06T01:09:34.060Z,6.33
2023-05-06T01:12:10.421Z,7.00
2023-05-06T01:14:44.610Z,7.00
2023-05-06T01:17:13.586Z,8.00
2023-05-06T01:19:49.275Z,9.00
2023-05-06T01:22:18.851Z,7.00
2023-05-06T01:24:47.182Z,6.00
2023-05-06T01:27:17.003Z,8.25
2023-05-06T01:29:47.006Z,8.00
2023-05-06T01:32:42.532Z,6.33
2023-05-06T01:35:11.037Z,7.75
2023-05-06T01:37:46.887Z,8.00
2023-05-06T01:40:17.047Z,4.75
2023-05-06T01:42:49.739Z,8.00
2023-05-06T01:45:18.798Z,6.25
2023-05-06T01:47:47.354Z,6.67
2023-05-06T01:50:15.946Z,7.50
2023-05-06T01:52:44.284Z,7.00
2023-05-06T01:55:12.563Z,7.00
2023-05-06T01:57:40.810Z,7.33
2023-05-06T02:00:09.936Z,6.25
2023-05-06T02:02:38.299Z,7.00
2023-05-06T02:05:07.462Z,7.00
2023-05-06T02:07:35.900Z,8.50
2023-05-06T02:10:04.812Z,7.33
2023-05-06T02:12:33.003Z,5.75
2023-05-06T02:15:01.232Z,8.00
2023-05-06T02:17:29.472Z,7.00
2023-05-06T02:19:57.644Z,7.00
2023-05-06T02:22:25.962Z,6.50
2023-05-06T02:24:54.151Z,6.00
2023-05-06T02:27:23.199Z,7.75
2023-05-06T02:29:51.433Z,6.50
2023-05-06T02:32:19.671Z,7.00
2023-05-06T02:34:47.917Z,6.75
2023-05-06T02:37:16.108Z,8.00
2023-05-06T02:39:44.322Z,7.25
2023-05-06T02:42:18.756Z,6.25
2023-05-06T02:44:47.540Z,8.67
2023-05-06T02:47:15.743Z,7.00
2023-05-06T02:49:43.981Z,7.00
2023-05-06T02:52:12.148Z,7.25
2023-05-06T02:54:40.338Z,6.50
2023-05-06T02:57:08.600Z,8.33
2023-05-06T02:59:37.229Z,7.00
2023-05-06T03:02:05.554Z,7.67
2023-05-06T03:04:33.997Z,5.33
2023-05-06T03:07:02.370Z,5.67
2023-05-06T03:09:30.601Z,8.00
2023-05-06T03:11:58.804Z,6.25
2023-05-06T03:14:26.975Z,7.00
2023-05-06T03:16:55.322Z,6.33
2023-05-06T03:19:23.603Z,6.00
2023-05-06T03:21:51.889Z,9.00
2023-05-06T03:24:20.514Z,6.00
2023-05-06T03:26:48.786Z,6.50
2023-05-06T03:29:17.060Z,6.50
2023-05-06T03:31:45.522Z,7.25
2023-05-06T03:34:13.833Z,7.33
2023-05-06T03:36:42.057Z,8.50
2023-05-06T03:39:10.445Z,6.50
2023-05-06T03:41:38.598Z,7.75
2023-05-06T03:44:06.909Z,7.67
2023-05-06T03:46:35.263Z,6.00
2023-05-06T03:49:03.541Z,9.50
2023-05-06T03:51:32.161Z,6.67
2023-05-06T03:54:00.558Z,7.67
2023-05-06T03:56:28.800Z,8.00
2023-05-06T03:58:57.030Z,7.25
2023-05-06T04:01:25.234Z,6.67
2023-05-06T04:03:54.762Z,6.50
2023-05-06T04:06:23.221Z,9.00
2023-05-06T04:08:51.468Z,7.33
2023-05-06T04:11:19.768Z,8.50
2023-05-06T04:13:47.986Z,9.00
2023-05-06T04:16:16.340Z,6.00
2023-05-06T04:18:46.318Z,6.00
2023-05-06T04:21:14.502Z,7.00
2023-05-06T04:23:42.963Z,8.00
2023-05-06T04:26:11.126Z,6.75
2023-05-06T04:28:39.384Z,7.00
2023-05-06T04:31:08.887Z,7.50
2023-05-06T04:33:37.220Z,7.25
2023-05-06T04:36:06.829Z,6.25
2023-05-06T04:38:35.993Z,9.00
2023-05-06T04:41:05.655Z,7.50
2023-05-06T04:43:33.938Z,4.75
2023-05-06T04:46:02.543Z,4.75
2023-05-06T04:48:30.805Z,7.00
2023-05-06T04:50:58.995Z,6.00
2023-05-06T04:53:27.225Z,8.00
2023-05-06T04:55:56.221Z,5.67
2023-05-06T04:58:24.544Z,3.25
2023-05-06T05:00:52.794Z,7.67
2023-05-06T05:03:21.113Z,6.00
2023-05-06T05:05:49.483Z,7.00
2023-05-06T05:08:17.764Z,9.50
2023-05-06T05:10:46.109Z,5.00
2023-05-06T05:13:14.717Z,10.75
2023-05-06T05:15:43.168Z,9.00
2023-05-06T05:18:11.469Z,10.25
2023-05-06T05:20:39.735Z,7.00
2023-05-06T05:23:07.937Z,9.00
2023-05-06T05:25:36.187Z,7.50
2023-05-06T05:28:04.462Z,10.00
2023-05-06T05:30:32.713Z,12.33
2023-05-06T05:33:01.036Z,10.25
2023-05-06T05:35:29.340Z,9.50
2023-05-06T05:37:57.535Z,9.75
2023-05-06T05:40:25.843Z,10.33
2023-05-06T05:42:54.666Z,10.00
2023-05-06T05:45:22.888Z,8.00
2023-05-06T05:47:51.149Z,10.00
2023-05-06T05:50:19.424Z,11.50
2023-05-06T05:52:47.698Z,10.00
2023-05-06T05:55:16.100Z,10.75
2023-05-06T05:57:44.278Z,10.50
2023-05-06T06:00:13.768Z,10.33
2023-05-06T06:02:42.225Z,8.00
2023-05-06T06:05:10.864Z,12.75
2023-05-06T06:07:40.150Z,11.00
2023-05-06T06:10:09.109Z,12.50
2023-05-06T06:12:37.458Z,9.00
2023-05-06T06:15:06.081Z,10.33
2023-05-06T06:17:34.391Z,9.25
2023-05-06T06:20:02.859Z,9.00
2023-05-06T06:22:31.102Z,8.00
2023-05-06T06:24:59.327Z,8.67
2023-05-06T06:27:27.604Z,9.75
2023-05-06T06:29:55.800Z,11.00
2023-05-06T06:32:23.989Z,10.00
2023-05-06T06:34:52.213Z,11.25
2023-05-06T06:37:20.394Z,10.67
2023-05-06T06:39:48.629Z,9.50
2023-05-06T06:42:16.904Z,9.75
2023-05-06T06:44:45.159Z,9.50
2023-05-06T06:47:13.388Z,11.00
2023-05-06T06:49:41.664Z,9.00
2023-05-06T06:52:09.818Z,9.75
2023-05-06T06:54:38.980Z,10.00
2023-05-06T06:57:07.266Z,9.75
2023-05-06T06:59:35.781Z,9.75
2023-05-06T07:02:04.095Z,10.25
2023-05-06T07:04:32.349Z,8.50
2023-05-06T07:07:00.803Z,10.50
2023-05-06T07:09:28.985Z,7.00
2023-05-06T07:11:58.779Z,10.00
2023-05-06T07:14:27.525Z,9.33
2023-05-06T07:16:56.175Z,11.00
2023-05-06T07:19:24.550Z,8.25
2023-05-06T07:21:52.755Z,10.00
2023-05-06T07:24:21.098Z,11.33
2023-05-06T07:26:49.567Z,9.50
2023-05-06T07:29:17.872Z,10.67
2023-05-06T07:31:46.154Z,9.00
2023-05-06T07:34:14.515Z,11.50
2023-05-06T07:36:43.761Z,12.00
2023-05-06T07:39:12.672Z,10.67
2023-05-06T07:41:41.281Z,9.50
2023-05-06T07:44:09.928Z,8.75
2023-05-06T07:46:38.903Z,10.50
2023-05-06T07:49:07.616Z,11.50
2023-05-06T07:51:36.489Z,11.25
2023-05-06T07:54:05.325Z,15.50
2023-05-06T07:56:33.769Z,11.00
2023-05-06T07:59:02.007Z,12.25
2023-05-06T08:01:30.216Z,11.67
2023-05-06T08:04:00.688Z,13.25
2023-05-06T08:06:29.070Z,10.50
2023-05-06T08:08:57.342Z,10.00
2023-05-06T08:11:25.629Z,9.00
2023-05-06T08:13:54.022Z,5.75
2023-05-06T08:16:25.012Z,7.50
2023-05-06T08:18:53.676Z,9.33
2023-05-06T08:21:22.082Z,10.50
2023-05-06T08:23:50.342Z,8.00
2023-05-06T08:26:18.689Z,8.00
2023-05-06T08:28:46.966Z,7.00
2023-05-06T08:31:15.317Z,7.00
2023-05-06T08:33:43.618Z,7.50
2023-05-06T08:36:11.849Z,7.75
2023-05-06T08:38:40.152Z,7.25
2023-05-06T08:41:10.359Z,7.00
2023-05-06T08:43:42.780Z,7.67
2023-05-06T08:46:11.309Z,8.00
2023-05-06T08:48:39.891Z,6.00
2023-05-06T08:51:08.987Z,7.33
2023-05-06T08:53:37.870Z,7.50
2023-05-06T08:56:08.911Z,8.00
2023-05-06T08:58:39.836Z,5.75
2023-05-06T09:01:08.252Z,6.50
2023-05-06T09:03:36.534Z,7.75
2023-05-06T09:06:05.154Z,8.00
2023-05-06T09:08:33.463Z,5.00
2023-05-06T09:11:01.762Z,7.00
2023-05-06T09:13:30.423Z,6.00
2023-05-06T09:15:58.590Z,6.00
2023-05-06T09:18:26.852Z,7.00
2023-05-06T09:20:55.084Z,6.67
2023-05-06T09:23:23.398Z,6.75
2023-05-06T09:25:51.627Z,4.00
2023-05-06T09:28:19.914Z,6.00
2023-05-06T09:30:48.313Z,7.00
2023-05-06T09:33:16.733Z,7.00
2023-05-06T09:35:45.869Z,7.25
2023-05-06T09:38:14.175Z,8.75
2023-05-06T09:40:42.384Z,6.33
2023-05-06T09:43:10.930Z,4.75
2023-05-06T09:45:39.437Z,6.00
2023-05-06T09:48:08.877Z,4.67
2023-05-06T09:50:37.120Z,5.00
2023-05-06T09:53:06.085Z,5.00
2023-05-06T09:55:35.058Z,3.50
2023-05-06T09:58:05.006Z,4.00
2023-05-06T10:00:33.955Z,4.00
2023-05-06T10:03:02.848Z,5.25
2023-05-06T10:05:32.848Z,4.67
2023-05-06T10:08:01.941Z,5.00
2023-05-06T10:10:31.331Z,5.00
2023-05-06T10:12:59.613Z,6.25
2023-05-06T10:15:27.988Z,4.50
2023-05-06T10:17:56.642Z,7.00
2023-05-06T10:20:25.634Z,6.00
2023-05-06T10:23:08.965Z,5.00
2023-05-06T10:25:42.624Z,4.00
2023-05-06T10:28:19.242Z,5.00
2023-05-06T10:30:54.224Z,4.25
2023-05-06T10:33:24.745Z,5.33
2023-05-06T10:36:20.745Z,4.25
2023-05-06T10:38:57.102Z,5.00
2023-05-06T10:41:28.139Z,4.25
2023-05-06T10:43:57.631Z,5.00
2023-05-06T10:46:29.741Z,4.00
2023-05-06T10:49:06.983Z,4.75
2023-05-06T10:51:36.602Z,5.25
2023-05-06T10:54:06.930Z,3.50
2023-05-06T10:57:02.761Z,5.50
2023-05-06T10:59:31.667Z,5.00
2023-05-06T11:02:02.805Z,3.00
2023-05-06T11:04:31.821Z,2.50
2023-05-06T11:07:12.960Z,3.00
2023-05-06T11:10:08.442Z,4.67
2023-05-06T11:12:53.837Z,3.75
2023-05-06T11:15:41.543Z,5.00
2023-05-06T11:18:24.908Z,4.50
2023-05-06T11:21:04.777Z,4.00
2023-05-06T11:23:42.367Z,5.00
2023-05-06T11:26:12.092Z,4.00
2023-05-06T11:28:42.351Z,4.00
2023-05-06T11:31:12.366Z,5.00
2023-05-06T11:33:48.587Z,4.00
2023-05-06T11:36:20.826Z,6.00
2023-05-06T11:38:51.703Z,7.67
2023-05-06T11:41:20.391Z,4.00
2023-05-06T11:43:52.870Z,4.00
2023-05-06T11:46:23.013Z,4.00
2023-05-06T11:48:51.446Z,5.00
2023-05-06T11:51:23.168Z,3.00
2023-05-06T11:53:53.089Z,4.00
2023-05-06T11:56:21.346Z,0.33
2023-05-06T11:58:49.582Z,3.50
2023-05-06T12:01:17.795Z,3.67
2023-05-06T12:03:46.374Z,3.00
2023-05-06T12:06:14.737Z,4.00
2023-05-06T12:08:43.040Z,1.00
2023-05-06T12:11:11.464Z,3.00
2023-05-06T12:13:40.882Z,2.00
2023-05-06T12:16:09.786Z,3.00
2023-05-06T12:18:38.352Z,3.33
2023-05-06T12:21:07.690Z,2.00
2023-05-06T12:23:35.993Z,4.00
2023-05-06T12:26:06.056Z,3.50
2023-05-06T12:28:36.237Z,3.25
2023-05-06T12:31:23.673Z,3.00
2023-05-06T12:33:52.422Z,3.00
2023-05-06T12:36:21.257Z,3.00
2023-05-06T12:39:00.855Z,3.75
2023-05-06T12:41:40.638Z,4.00
2023-05-06T12:44:37.612Z,2.00
2023-05-06T12:47:07.744Z,3.50
2023-05-06T12:49:54.797Z,2.67
2023-05-06T12:52:24.661Z,2.00
2023-05-06T12:54:53.112Z,3.75
2023-05-06T12:57:22.061Z,4.00
2023-05-06T12:59:50.884Z,4.75
2023-05-06T13:02:19.222Z,4.25
2023-05-06T13:04:47.636Z,3.00
2023-05-06T13:07:15.982Z,3.33
2023-05-06T13:09:44.815Z,2.00
2023-05-06T13:12:13.362Z,3.33
2023-05-06T13:14:41.698Z,2.75
2023-05-06T13:17:10.062Z,3.50
2023-05-06T13:19:38.382Z,1.50
2023-05-06T13:22:06.603Z,2.50
2023-05-06T13:24:34.812Z,4.00
2023-05-06T13:27:03.082Z,5.00
2023-05-06T13:29:32.053Z,4.00
2023-05-06T13:32:01.029Z,2.67
2023-05-06T13:34:29.538Z,3.00
2023-05-06T13:36:58.814Z,3.33
2023-05-06T13:39:27.049Z,3.00
2023-05-06T13:41:55.408Z,4.00
2023-05-06T13:44:24.787Z,4.25
2023-05-06T13:46:53.464Z,2.50
2023-05-06T13:49:21.794Z,3.00
2023-05-06T13:51:50.311Z,1.00
2023-05-06T13:54:18.497Z,4.00
2023-05-06T13:56:46.698Z,3.00
2023-05-06T13:59:15.004Z,2.75
2023-05-06T14:01:43.663Z,2.00
2023-05-06T14:04:12.521Z,3.00
2023-05-06T14:06:40.808Z,2.50
2023-05-06T14:09:09.021Z,3.00
2023-05-06T14:11:37.266Z,4.50
2023-05-06T14:14:06.588Z,3.00
2023-05-06T14:16:34.859Z,3.00
2023-05-06T14:19:03.211Z,5.00
2023-05-06T14:21:32.303Z,3.67
2023-05-06T14:24:00.571Z,2.50
2023-05-06T14:26:28.841Z,3.50
2023-05-06T14:28:57.104Z,4.67
2023-05-06T14:31:26.557Z,3.33
2023-05-06T14:33:54.994Z,4.00
2023-05-06T14:36:23.309Z,2.75
2023-05-06T14:38:51.505Z,3.00
2023-05-06T14:41:19.780Z,4.00
2023-05-06T14:43:48.046Z,3.75
2023-05-06T14:46:16.624Z,4.50
2023-05-06T14:48:45.735Z,2.00
2023-05-06T14:51:14.035Z,3.00
2023-05-06T14:53:42.600Z,3.00
2023-05-06T14:56:11.215Z,4.00
2023-05-06T14:58:39.556Z,4.00
2023-05-06T15:01:08.014Z,4.67
2023-05-06T15:03:36.504Z,3.75
2023-05-06T15:06:05.688Z,5.00
2023-05-06T15:08:34.050Z,4.00
2023-05-06T15:11:04.313Z,4.00
2023-05-06T15:13:32.783Z,4.00
2023-05-06T15:16:01.079Z,4.00
2023-05-06T15:18:29.393Z,4.50
2023-05-06T15:21:01.280Z,4.67
2023-05-06T15:23:29.557Z,5.00
2023-05-06T15:25:58.391Z,3.50
2023-05-06T15:28:26.662Z,3.00
2023-05-06T15:30:54.891Z,2.00
2023-05-06T15:33:23.130Z,4.00
2023-05-06T15:35:51.475Z,5.00
2023-05-06T15:38:19.765Z,5.33
2023-05-06T15:40:51.945Z,4.00
2023-05-06T15:43:23.827Z,3.00
2023-05-06T15:45:52.558Z,3.00
2023-05-06T15:48:21.016Z,3.00
2023-05-06T15:50:49.226Z,4.00
2023-05-06T15:53:19.244Z,4.67
2023-05-06T15:55:54.571Z,3.67
2023-05-06T15:58:25.505Z,3.00
2023-05-06T16:00:53.798Z,4.00
2023-05-06T16:03:22.380Z,5.00
2023-05-06T16:05:53.930Z,4.50
2023-05-06T16:08:22.774Z,3.75
2023-05-06T16:10:52.468Z,4.75
2023-05-06T16:13:21.215Z,2.00
2023-05-06T16:15:50.120Z,4.75
2023-05-06T16:18:19.138Z,4.33
2023-05-06T16:20:47.985Z,2.00
2023-05-06T16:23:16.643Z,3.50
2023-05-06T16:25:45.358Z,3.50
2023-05-06T16:28:14.150Z,5.67
2023-05-06T16:30:44.887Z,3.00
2023-05-06T16:33:13.717Z,2.00
2023-05-06T16:35:42.217Z,6.00
2023-05-06T16:38:11.011Z,5.33
2023-05-06T16:40:43.541Z,3.00
2023-05-06T16:43:12.260Z,4.00
2023-05-06T16:45:45.742Z,3.25
2023-05-06T16:53:02.108Z,1.67
2023-05-06T16:55:30.602Z,2.50
2023-05-06T16:58:01.022Z,3.33
2023-05-06T17:00:30.122Z,4.50
2023-05-06T17:02:58.967Z,3.00
2023-05-06T17:05:28.361Z,3.33
2023-05-06T17:07:57.969Z,2.00
2023-05-06T17:10:29.683Z,20.33
2023-05-06T17:12:58.778Z,17.67
2023-05-06T17:15:27.245Z,8.00
2023-05-06T17:17:55.778Z,8.00
2023-05-06T17:20:25.143Z,10.00
2023-05-06T17:22:53.508Z,6.50
2023-05-06T17:25:22.099Z,6.00
2023-05-06T17:27:50.792Z,7.00
2023-05-06T17:30:21.549Z,9.00
2023-05-06T17:32:50.306Z,7.00
2023-05-06T17:35:20.616Z,6.33
2023-05-06T17:37:50.182Z,6.33
2023-05-06T17:40:19.289Z,6.33
2023-05-06T17:42:47.921Z,5.50
2023-05-06T17:45:16.882Z,6.00
2023-05-06T17:47:46.045Z,5.00
2023-05-06T17:50:15.348Z,8.00
2023-05-06T17:52:44.553Z,6.00
2023-05-06T17:55:17.422Z,6.33
2023-05-06T17:57:46.723Z,7.00
2023-05-06T18:00:17.373Z,8.25
2023-05-06T18:02:46.549Z,9.50
2023-05-06T18:05:16.900Z,7.00
2023-05-06T18:07:46.374Z,9.00
2023-05-06T18:10:15.059Z,8.25
2023-05-06T18:12:46.357Z,8.00
2023-05-06T18:15:15.300Z,9.00
2023-05-06T18:17:44.864Z,7.33
2023-05-06T18:20:14.434Z,9.50
2023-05-06T18:22:43.988Z,6.00
2023-05-06T18:25:13.255Z,6.00
2023-05-06T18:27:42.702Z,7.00
2023-05-06T18:30:12.537Z,8.50
2023-05-06T18:32:41.163Z,7.67
2023-05-06T18:35:13.757Z,8.50
2023-05-06T18:37:43.191Z,7.00
2023-05-06T18:40:13.082Z,7.00
2023-05-06T18:42:42.153Z,9.00
2023-05-06T18:45:12.111Z,7.00
2023-05-06T18:47:41.424Z,49.33
2023-05-06T18:50:10.791Z,8.67
2023-05-06T18:52:40.482Z,8.33
2023-05-06T18:55:10.299Z,7.00
2023-05-06T18:57:38.876Z,7.00
2023-05-06T19:00:08.418Z,7.00
2023-05-06T19:02:36.791Z,10.00
2023-05-06T19:05:07.234Z,10.00
2023-05-06T19:07:36.037Z,8.00
2023-05-06T19:10:04.823Z,8.33
2023-05-06T19:12:35.030Z,9.67
2023-05-06T19:15:03.454Z,9.50
2023-05-06T19:17:31.930Z,8.25
2023-05-06T19:20:00.392Z,9.50
2023-05-06T19:22:30.214Z,9.00
2023-05-06T19:24:58.683Z,8.50
2023-05-06T19:27:27.072Z,9.00
2023-05-06T19:29:55.766Z,9.00
2023-05-06T19:32:24.259Z,8.67
2023-05-06T19:34:52.818Z,9.00
2023-05-06T19:37:21.299Z,9.33
2023-05-06T19:39:49.885Z,7.50
2023-05-06T19:42:18.212Z,7.50
2023-05-06T19:44:48.491Z,8.00
2023-05-06T19:47:16.975Z,6.00
2023-05-06T19:49:45.455Z,8.50
2023-05-06T19:52:13.929Z,8.00
2023-05-06T19:54:42.410Z,9.00
2023-05-06T19:57:10.797Z,6.50
2023-05-06T19:59:39.171Z,7.00
2023-05-06T20:02:10.173Z,6.00
2023-05-06T20:04:38.699Z,9.00
2023-05-06T20:07:07.391Z,8.75
2023-05-06T20:09:36.071Z,8.00
2023-05-06T20:12:05.509Z,9.50
2023-05-06T20:14:33.971Z,8.00
2023-05-06T20:17:03.055Z,7.50
2023-05-06T20:19:31.636Z,10.00
2023-05-06T20:22:00.737Z,9.00
2023-05-06T20:24:29.725Z,5.75
2023-05-06T20:26:59.343Z,7.50
2023-05-06T20:29:27.527Z,9.75
2023-05-06T20:31:56.320Z,6.25
2023-05-06T20:34:24.680Z,7.00
2023-05-06T20:36:54.622Z,11.00
2023-05-06T20:39:24.312Z,8.50
2023-05-06T20:41:52.617Z,6.00
2023-05-06T20:44:21.165Z,7.00
2023-05-06T20:46:49.641Z,7.00
2023-05-06T20:49:19.044Z,7.00
2023-05-06T20:51:47.329Z,9.50
2023-05-06T20:54:15.812Z,35.00
2023-05-06T20:56:44.392Z,13.00
2023-05-06T20:59:12.664Z,18.75
2023-05-06T21:01:41.564Z,18.50
2023-05-06T21:04:09.957Z,18.50
2023-05-06T21:06:38.515Z,14.75
2023-05-06T21:09:07.301Z,13.67
2023-05-06T21:11:35.890Z,12.50
2023-05-06T21:14:04.266Z,10.00
2023-05-06T21:16:32.749Z,9.25
2023-05-06T21:19:01.246Z,10.00
2023-05-06T21:21:33.105Z,9.00
2023-05-06T21:24:01.677Z,12.00
2023-05-06T21:26:31.140Z,9.00
2023-05-06T21:28:59.456Z,9.67
2023-05-06T21:31:28.013Z,9.00
2023-05-06T21:33:58.165Z,10.33
2023-05-06T21:36:27.433Z,9.75
2023-05-06T21:39:10.810Z,12.00
2023-05-06T21:41:40.403Z,10.00
2023-05-06T21:44:09.603Z,10.00
2023-05-06T21:46:38.184Z,10.75
2023-05-06T21:49:06.674Z,9.33
2023-05-06T21:51:36.278Z,10.25
2023-05-06T21:54:04.760Z,12.00
2023-05-06T21:56:33.243Z,10.00
2023-05-06T21:59:01.719Z,10.00
2023-05-06T22:01:30.269Z,9.00
2023-05-06T22:03:58.813Z,9.00
2023-05-06T22:06:27.268Z,10.25
2023-05-06T22:08:55.769Z,20.00
2023-05-06T22:11:25.058Z,17.00
2023-05-06T22:13:53.535Z,16.75
2023-05-06T22:16:22.474Z,16.00
2023-05-06T22:18:52.148Z,15.25
2023-05-06T22:21:20.516Z,17.67
2023-05-06T22:23:48.892Z,12.50
2023-05-06T22:26:17.377Z,13.00
2023-05-06T22:28:45.860Z,10.00
2023-05-06T22:31:15.181Z,11.67
2023-05-06T22:33:43.637Z,10.50
2023-05-06T22:36:12.023Z,14.00
2023-05-06T22:38:40.708Z,10.25
2023-05-06T22:41:09.186Z,13.00
2023-05-06T22:43:37.676Z,9.33
2023-05-06T22:46:06.120Z,11.00
2023-05-06T22:48:35.043Z,11.50
2023-05-06T22:51:03.421Z,14.00
2023-05-06T22:53:31.903Z,11.00
2023-05-06T22:56:00.484Z,10.33
2023-05-06T22:58:28.865Z,10.75
2023-05-06T23:00:57.383Z,11.00
2023-05-06T23:03:26.024Z,10.50
2023-05-06T23:05:54.926Z,13.33
2023-05-06T23:08:23.330Z,13.00
2023-05-06T23:10:51.788Z,16.00
2023-05-06T23:13:20.254Z,9.25
2023-05-06T23:15:48.856Z,8.00
2023-05-06T23:18:17.230Z,10.00
2023-05-06T23:20:45.816Z,13.75
2023-05-06T23:23:14.198Z,12.75
2023-05-06T23:25:42.676Z,14.00
2023-05-06T23:28:11.060Z,11.33
2023-05-06T23:30:39.576Z,12.00
2023-05-06T23:33:08.049Z,13.33
2023-05-06T23:35:36.707Z,13.00
2023-05-06T23:38:05.187Z,12.00
2023-05-06T23:40:33.672Z,9.00
2023-05-06T23:43:01.956Z,10.00
2023-05-06T23:45:30.438Z,9.75
2023-05-06T23:47:58.896Z,11.33
2023-05-06T23:50:27.318Z,9.00
2023-05-06T23:52:56.203Z,7.00
2023-05-06T23:55:26.610Z,11.67
2023-05-06T23:57:56.117Z,10.00
